createdAt,value
2018-09-28T00:00:18.325Z,100751.00
2018-09-28T00:05:21.415Z,100739.00
2018-09-28T00:10:24.388Z,100739.00
2018-09-28T00:15:27.467Z,100734.00
2018-09-28T00:20:30.492Z,100734.00
2018-09-28T00:25:33.508Z,100737.00
2018-09-28T00:30:36.628Z,100727.00
2018-09-28T00:35:39.728Z,100730.00
2018-09-28T00:40:42.865Z,100723.00
2018-09-28T00:45:46.139Z,100720.00
2018-09-28T00:50:49.145Z,100712.00
2018-09-28T00:55:52.168Z,100707.00
2018-09-28T01:00:55.214Z,100706.00
2018-09-28T01:05:58.364Z,100707.00
2018-09-28T01:11:01.336Z,100699.00
2018-09-28T01:16:04.355Z,100690.00
2018-09-28T01:21:07.388Z,100698.00
2018-09-28T01:26:10.555Z,100695.00
2018-09-28T01:31:13.572Z,100694.00
2018-09-28T01:36:16.656Z,100688.00
2018-09-28T01:41:19.740Z,100685.00
2018-09-28T01:46:22.761Z,100675.00
2018-09-28T01:51:25.758Z,100685.00
2018-09-28T01:56:28.894Z,100684.00
2018-09-28T02:01:31.874Z,100679.00
2018-09-28T02:06:34.884Z,100673.00
2018-09-28T02:11:37.900Z,100673.00
2018-09-28T02:16:40.861Z,100675.00
2018-09-28T02:21:43.954Z,100686.00
2018-09-28T02:26:46.993Z,100675.00
2018-09-28T02:31:49.977Z,100683.00
2018-09-28T02:36:53.402Z,100684.00
2018-09-28T02:41:56.451Z,100685.00
2018-09-28T02:46:59.428Z,100680.00
2018-09-28T02:52:02.485Z,100674.00
2018-09-28T02:57:05.630Z,100684.00
2018-09-28T03:02:08.951Z,100677.00
2018-09-28T03:07:11.928Z,100673.00
2018-09-28T03:12:14.912Z,100674.00
2018-09-28T03:17:17.915Z,100672.00
2018-09-28T03:22:20.931Z,100671.00
2018-09-28T03:27:23.890Z,100667.00
2018-09-28T03:32:26.916Z,100664.00
2018-09-28T03:37:30.038Z,100676.00
2018-09-28T03:42:33.049Z,100674.00
2018-09-28T03:47:36.508Z,100665.00
2018-09-28T03:52:39.492Z,100666.00
2018-09-28T03:57:42.517Z,100668.00
2018-09-28T04:02:45.551Z,100668.00
2018-09-28T04:07:48.513Z,100666.00
2018-09-28T04:12:51.552Z,100667.00
2018-09-28T04:17:54.578Z,100670.00
2018-09-28T04:22:57.622Z,100676.00
2018-09-28T04:28:00.668Z,100689.00
2018-09-28T04:33:03.661Z,100692.00
2018-09-28T04:38:06.669Z,100685.00
2018-09-28T04:43:09.784Z,100686.00
2018-09-28T04:48:12.781Z,100688.00
2018-09-28T04:53:15.795Z,100686.00
2018-09-28T04:58:19.566Z,100689.00
2018-09-28T05:03:22.624Z,100699.00
2018-09-28T05:08:25.631Z,100706.00
2018-09-28T05:13:28.630Z,100706.00
2018-09-28T05:18:31.639Z,100715.00
2018-09-28T05:23:34.689Z,100713.00
2018-09-28T05:28:37.876Z,100715.00
2018-09-28T05:33:40.876Z,100715.00
2018-09-28T05:38:43.947Z,100729.00
2018-09-28T05:43:47.038Z,100725.00
2018-09-28T05:48:50.124Z,100736.00
2018-09-28T05:53:53.361Z,100738.00
2018-09-28T05:59:02.094Z,100744.00
2018-09-28T06:04:10.978Z,100761.00
2018-09-28T06:09:14.012Z,100780.00
2018-09-28T06:14:17.044Z,100778.00
2018-09-28T06:19:20.049Z,100794.00
2018-09-28T06:24:23.100Z,100793.00
2018-09-28T06:29:26.145Z,100797.00
2018-09-28T06:34:29.156Z,100803.00
2018-09-28T06:39:32.175Z,100811.00
2018-09-28T06:44:35.268Z,100828.00
2018-09-28T06:49:38.336Z,100830.00
2018-09-28T06:54:41.437Z,100832.00
2018-09-28T06:59:44.558Z,100844.00
2018-09-28T07:04:47.605Z,100850.00
2018-09-28T07:09:50.852Z,100861.00
2018-09-28T07:14:54.644Z,100862.00
2018-09-28T07:19:57.782Z,100857.00
2018-09-28T07:25:00.846Z,100863.00
2018-09-28T07:30:04.335Z,100874.00
2018-09-28T07:35:07.374Z,100867.00
2018-09-28T07:40:10.421Z,100873.00
2018-09-28T07:45:13.443Z,100875.00
2018-09-28T07:50:16.634Z,100887.00
2018-09-28T07:55:19.704Z,100889.00
2018-09-28T08:00:22.769Z,100890.00
2018-09-28T08:05:25.795Z,100899.00
2018-09-28T08:10:28.889Z,100899.00
2018-09-28T08:15:32.068Z,100901.00
2018-09-28T08:20:35.157Z,100910.00
2018-09-28T08:25:38.332Z,100913.00
2018-09-28T08:30:41.344Z,100913.00
2018-09-28T08:35:44.359Z,100919.00
2018-09-28T08:40:47.557Z,100913.00
2018-09-28T08:45:50.609Z,100914.00
2018-09-28T08:50:53.734Z,100919.00
2018-09-28T08:55:56.724Z,100915.00
2018-09-28T09:00:59.793Z,100911.00
2018-09-28T09:06:02.784Z,100922.00
2018-09-28T09:11:05.912Z,100928.00
2018-09-28T09:16:09.167Z,100919.00
2018-09-28T09:21:12.397Z,100911.00
2018-09-28T09:26:15.410Z,100902.00
2018-09-28T09:31:18.444Z,100906.00
2018-09-28T09:36:21.592Z,100905.00
2018-09-28T09:41:24.660Z,100915.00
2018-09-28T09:46:27.704Z,100919.00
2018-09-28T09:51:30.772Z,100917.00
2018-09-28T09:56:33.775Z,100912.00
2018-09-28T10:01:42.396Z,100913.00
2018-09-28T10:06:54.148Z,100923.00
2018-09-28T10:11:57.242Z,100909.00
2018-09-28T10:17:00.442Z,100894.00
2018-09-28T10:22:03.660Z,100911.00
2018-09-28T10:27:06.992Z,100898.00
2018-09-28T10:32:10.129Z,100904.00
2018-09-28T10:37:13.152Z,100898.00
2018-09-28T10:42:16.230Z,100910.00
2018-09-28T10:47:19.464Z,100892.00
2018-09-28T10:52:22.624Z,100895.00
2018-09-28T10:57:25.559Z,100896.00
2018-09-28T11:02:28.607Z,100902.00
2018-09-28T11:07:31.632Z,100903.00
2018-09-28T11:12:34.740Z,100898.00
2018-09-28T11:17:38.058Z,100908.00
2018-09-28T11:22:41.092Z,100899.00
2018-09-28T11:27:44.403Z,100900.00
2018-09-28T11:32:47.322Z,100898.00
2018-09-28T11:37:50.449Z,100889.00
2018-09-28T11:42:53.530Z,100899.00
2018-09-28T11:47:56.668Z,100893.00
2018-09-28T11:52:59.749Z,100900.00
2018-09-28T11:58:02.992Z,100901.00
2018-09-28T12:03:06.098Z,100880.00
2018-09-28T12:08:09.448Z,100887.00
2018-09-28T12:13:12.529Z,100879.00
2018-09-28T12:18:15.695Z,100864.00
2018-09-28T12:23:18.706Z,100863.00
2018-09-28T12:28:21.728Z,100859.00
2018-09-28T12:33:24.848Z,100855.00
2018-09-28T12:38:27.848Z,100864.00
2018-09-28T12:43:35.032Z,100862.00
2018-09-28T12:48:34.117Z,100871.00
2018-09-28T12:53:37.213Z,100855.00
2018-09-28T12:58:40.321Z,100868.00
2018-09-28T13:03:43.445Z,100854.00
2018-09-28T13:08:46.585Z,100844.00
2018-09-28T13:13:49.590Z,100852.00
2018-09-28T13:18:52.738Z,100860.00
2018-09-28T13:23:55.858Z,100863.00
2018-09-28T13:28:58.815Z,100844.00
2018-09-28T13:34:07.655Z,100862.00
2018-09-28T13:39:10.843Z,100866.00
2018-09-28T13:44:13.919Z,100876.00
2018-09-28T13:49:16.946Z,100873.00
2018-09-28T13:54:20.054Z,100881.00
2018-09-28T13:59:23.024Z,100877.00
2018-09-28T14:04:26.252Z,100887.00
2018-09-28T14:09:29.231Z,100903.00
2018-09-28T14:14:32.322Z,100898.00
2018-09-28T14:19:35.359Z,100919.00
2018-09-28T14:24:38.509Z,100921.00
2018-09-28T14:29:41.636Z,100920.00
2018-09-28T14:34:44.785Z,100921.00
2018-09-28T14:39:47.827Z,100926.00
2018-09-28T14:44:51.088Z,100949.00
2018-09-28T14:49:54.404Z,100950.00
2018-09-28T14:54:57.645Z,100964.00
2018-09-28T15:00:00.759Z,100963.00
2018-09-28T15:05:03.899Z,100984.00
2018-09-28T15:10:07.056Z,100997.00
2018-09-28T15:15:10.158Z,100978.00
2018-09-28T15:20:13.887Z,100978.00
2018-09-28T15:25:17.026Z,100992.00
2018-09-28T15:30:20.303Z,100996.00
2018-09-28T15:35:23.483Z,100987.00
2018-09-28T15:40:26.721Z,100991.00
2018-09-28T15:45:29.928Z,100996.00
2018-09-28T15:50:33.166Z,101007.00
2018-09-28T15:55:36.303Z,101011.00
2018-09-28T16:00:39.485Z,101015.00
2018-09-28T16:05:42.552Z,101018.00
2018-09-28T16:10:45.651Z,101025.00
2018-09-28T16:15:48.928Z,101030.00
2018-09-28T16:26:01.029Z,101047.00
2018-09-28T16:31:04.086Z,101057.00
2018-09-28T16:36:07.217Z,101059.00
2018-09-28T16:41:10.579Z,101062.00
2018-09-28T16:46:13.776Z,101065.00
2018-09-28T16:51:17.041Z,101070.00
2018-09-28T16:56:20.129Z,101069.00
2018-09-28T17:01:23.212Z,101069.00
2018-09-28T17:06:26.289Z,101085.00
2018-09-28T17:11:29.307Z,101083.00
2018-09-28T17:16:32.578Z,101094.00
2018-09-28T17:21:35.719Z,101105.00
2018-09-28T17:26:38.883Z,101105.00
2018-09-28T17:31:41.892Z,101110.00
2018-09-28T17:36:44.980Z,101119.00
2018-09-28T17:41:47.974Z,101120.00
2018-09-28T17:46:50.993Z,101136.00
2018-09-28T17:51:54.193Z,101143.00
2018-09-28T17:56:58.012Z,101147.00
2018-09-28T18:02:01.234Z,101150.00
2018-09-28T18:07:04.322Z,101160.00
2018-09-28T18:12:07.438Z,101169.00
2018-09-28T18:17:10.629Z,101170.00
2018-09-28T18:22:13.798Z,101186.00
2018-09-28T18:27:17.488Z,101193.00
2018-09-28T18:32:20.485Z,101197.00
2018-09-28T18:37:23.587Z,101200.00
2018-09-28T18:42:26.644Z,101199.00
2018-09-28T18:47:29.915Z,101210.00
2018-09-28T18:52:33.141Z,101217.00
2018-09-28T18:57:36.693Z,101217.00
2018-09-28T19:02:40.078Z,101224.00
2018-09-28T19:07:43.406Z,101218.00
2018-09-28T19:12:46.580Z,101229.00
2018-09-28T19:17:49.678Z,101238.00
2018-09-28T19:22:52.866Z,101239.00
2018-09-28T19:27:56.134Z,101237.00
2018-09-28T19:32:59.176Z,101240.00
2018-09-28T19:38:02.322Z,101243.00
2018-09-28T19:43:05.820Z,101252.00
2018-09-28T19:48:09.763Z,101268.00
2018-09-28T19:53:12.883Z,101266.00
2018-09-28T19:58:16.026Z,101270.00
2018-09-28T20:03:19.207Z,101274.00
2018-09-28T20:08:22.298Z,101294.00
2018-09-28T20:13:25.748Z,101296.00
2018-09-28T20:18:28.876Z,101296.00
2018-09-28T20:23:32.472Z,101302.00
2018-09-28T20:28:35.548Z,101296.00
2018-09-28T20:33:38.680Z,101306.00
2018-09-28T20:38:41.797Z,101310.00
2018-09-28T20:43:45.014Z,101314.00
2018-09-28T20:48:48.152Z,101314.00
2018-09-28T20:53:51.230Z,101324.00
2018-09-28T20:58:54.305Z,101330.00
2018-09-28T21:03:57.683Z,101328.00
2018-09-28T21:09:00.789Z,101328.00
2018-09-28T21:14:03.832Z,101330.00
2018-09-28T21:19:07.143Z,101327.00
2018-09-28T21:24:10.140Z,101327.00
2018-09-28T21:29:13.564Z,101323.00
2018-09-28T21:34:16.635Z,101332.00
2018-09-28T21:39:19.666Z,101342.00
2018-09-28T21:44:22.862Z,101340.00
2018-09-28T21:49:26.068Z,101350.00
2018-09-28T21:54:29.303Z,101347.00
2018-09-28T21:59:32.380Z,101359.00
2018-09-28T22:04:35.565Z,101349.00
2018-09-28T22:09:38.549Z,101350.00
2018-09-28T22:14:41.573Z,101365.00
2018-09-28T22:19:44.569Z,101357.00
2018-09-28T22:24:47.554Z,101355.00
2018-09-28T22:29:50.591Z,101364.00
2018-09-28T22:34:53.811Z,101373.00
2018-09-28T22:39:56.792Z,101377.00
2018-09-28T22:44:59.738Z,101370.00
2018-09-28T22:50:03.260Z,101366.00
2018-09-28T22:55:06.297Z,101377.00
2018-09-28T23:00:09.271Z,101376.00
2018-09-28T23:05:12.273Z,101384.00
2018-09-28T23:10:15.232Z,101384.00
2018-09-28T23:15:18.368Z,101381.00
2018-09-28T23:20:21.370Z,101392.00
2018-09-28T23:25:24.364Z,101391.00
2018-09-28T23:30:27.353Z,101399.00
2018-09-28T23:35:30.387Z,101393.00
2018-09-28T23:40:33.407Z,101396.00
2018-09-28T23:45:36.502Z,101380.00
2018-09-28T23:50:39.518Z,101384.00
2018-09-28T23:55:42.480Z,101386.00
